sensor_id;sensor_type;location;lat;lon;timestamp;pressure;altitude;pressure_sealevel;temperature;humidity
67052;BME280;53957;47.222;18.670;2023-02-26T00:01:15;99017.41;;;3.19;99.39
67052;BME280;53957;47.222;18.670;2023-02-26T00:04:19;99034.00;;;3.14;98.86
67052;BME280;53957;47.222;18.670;2023-02-26T00:08:01;99030.03;;;3.12;98.89
67052;BME280;53957;47.222;18.670;2023-02-26T00:11:09;99041.13;;;3.14;97.68
67052;BME280;53957;47.222;18.670;2023-02-26T00:14:15;99045.84;;;3.01;99.59
67052;BME280;53957;47.222;18.670;2023-02-26T00:20:30;99052.16;;;3.00;99.18
67052;BME280;53957;47.222;18.670;2023-02-26T00:23:38;99032.13;;;2.94;99.97
67052;BME280;53957;47.222;18.670;2023-02-26T00:26:41;99038.44;;;3.03;99.87
67052;BME280;53957;47.222;18.670;2023-02-26T00:29:50;99043.97;;;2.97;98.36
67052;BME280;53957;47.222;18.670;2023-02-26T00:33:01;99042.91;;;2.87;99.12
67052;BME280;53957;47.222;18.670;2023-02-26T00:42:51;99053.72;;;2.96;98.71
67052;BME280;53957;47.222;18.670;2023-02-26T00:53:02;99037.62;;;2.93;97.63
67052;BME280;53957;47.222;18.670;2023-02-26T00:56:14;99039.25;;;3.14;97.76
67052;BME280;53957;47.222;18.670;2023-02-26T00:59:19;99035.81;;;2.93;96.40
67052;BME280;53957;47.222;18.670;2023-02-26T01:02:23;99050.03;;;3.02;95.55
67052;BME280;53957;47.222;18.670;2023-02-26T01:05:37;99063.50;;;3.21;95.87
67052;BME280;53957;47.222;18.670;2023-02-26T01:09:07;99075.09;;;3.26;95.19
67052;BME280;53957;47.222;18.670;2023-02-26T01:12:32;99088.00;;;3.12;95.33
67052;BME280;53957;47.222;18.670;2023-02-26T01:15:47;99095.13;;;3.11;95.94
67052;BME280;53957;47.222;18.670;2023-02-26T01:19:32;99077.75;;;3.20;94.23
67052;BME280;53957;47.222;18.670;2023-02-26T01:25:53;99062.16;;;2.98;97.59
67052;BME280;53957;47.222;18.670;2023-02-26T01:29:17;99048.16;;;2.93;97.10
67052;BME280;53957;47.222;18.670;2023-02-26T01:33:08;99048.97;;;2.83;98.77
67052;BME280;53957;47.222;18.670;2023-02-26T01:36:19;99047.66;;;2.85;97.64
67052;BME280;53957;47.222;18.670;2023-02-26T01:39:41;99043.94;;;2.76;99.41
67052;BME280;53957;47.222;18.670;2023-02-26T01:42:50;99040.25;;;2.77;100.00
67052;BME280;53957;47.222;18.670;2023-02-26T01:46:21;99038.09;;;2.64;100.00
67052;BME280;53957;47.222;18.670;2023-02-26T01:49:26;99055.47;;;2.65;100.00
67052;BME280;53957;47.222;18.670;2023-02-26T01:56:00;99069.94;;;2.57;100.00
67052;BME280;53957;47.222;18.670;2023-02-26T01:59:05;99082.84;;;2.64;100.00
67052;BME280;53957;47.222;18.670;2023-02-26T02:02:12;99060.97;;;2.58;100.00
67052;BME280;53957;47.222;18.670;2023-02-26T02:05:32;99048.84;;;2.52;100.00
67052;BME280;53957;47.222;18.670;2023-02-26T02:08:45;99043.31;;;2.48;100.00
67052;BME280;53957;47.222;18.670;2023-02-26T02:29:17;99072.53;;;2.52;100.00
67052;BME280;53957;47.222;18.670;2023-02-26T02:32:30;99083.12;;;2.62;100.00
67052;BME280;53957;47.222;18.670;2023-02-26T02:36:02;99081.13;;;2.32;100.00
67052;BME280;53957;47.222;18.670;2023-02-26T02:39:25;99086.41;;;2.37;100.00
67052;BME280;53957;47.222;18.670;2023-02-26T02:42:34;99102.13;;;2.21;100.00
67052;BME280;53957;47.222;18.670;2023-02-26T02:45:57;99111.22;;;2.51;100.00
67052;BME280;53957;47.222;18.670;2023-02-26T02:49:33;99111.09;;;2.25;100.00
67052;BME280;53957;47.222;18.670;2023-02-26T02:52:57;99115.94;;;2.49;100.00
67052;BME280;53957;47.222;18.670;2023-02-26T02:56:16;99116.22;;;2.48;100.00
67052;BME280;53957;47.222;18.670;2023-02-26T02:59:42;99133.13;;;2.57;100.00
67052;BME280;53957;47.222;18.670;2023-02-26T03:03:18;99121.19;;;2.39;100.00
67052;BME280;53957;47.222;18.670;2023-02-26T03:06:24;99117.75;;;2.38;100.00
67052;BME280;53957;47.222;18.670;2023-02-26T03:09:54;99115.56;;;2.25;100.00
67052;BME280;53957;47.222;18.670;2023-02-26T03:13:39;99129.97;;;2.17;100.00
67052;BME280;53957;47.222;18.670;2023-02-26T03:17:05;99111.63;;;2.22;100.00
67052;BME280;53957;47.222;18.670;2023-02-26T03:20:49;99129.72;;;2.14;100.00
67052;BME280;53957;47.222;18.670;2023-02-26T03:24:06;99144.50;;;2.20;100.00
67052;BME280;53957;47.222;18.670;2023-02-26T03:30:36;99142.38;;;2.22;100.00
67052;BME280;53957;47.222;18.670;2023-02-26T03:34:19;99136.25;;;2.11;100.00
67052;BME280;53957;47.222;18.670;2023-02-26T03:37:49;99161.81;;;2.16;100.00
67052;BME280;53957;47.222;18.670;2023-02-26T03:41:19;99173.38;;;2.15;100.00
67052;BME280;53957;47.222;18.670;2023-02-26T03:44:52;99173.34;;;2.09;100.00
67052;BME280;53957;47.222;18.670;2023-02-26T03:48:17;99181.53;;;2.13;100.00
67052;BME280;53957;47.222;18.670;2023-02-26T03:51:23;99183.53;;;2.01;100.00
67052;BME280;53957;47.222;18.670;2023-02-26T03:54:45;99149.38;;;2.06;100.00
67052;BME280;53957;47.222;18.670;2023-02-26T03:58:13;99145.13;;;2.00;100.00
67052;BME280;53957;47.222;18.670;2023-02-26T04:01:44;99157.53;;;2.04;100.00
67052;BME280;53957;47.222;18.670;2023-02-26T04:05:02;99163.47;;;1.89;100.00
67052;BME280;53957;47.222;18.670;2023-02-26T04:08:25;99159.69;;;2.13;100.00
67052;BME280;53957;47.222;18.670;2023-02-26T04:11:37;99173.59;;;2.08;100.00
67052;BME280;53957;47.222;18.670;2023-02-26T04:14:41;99184.47;;;1.84;100.00
67052;BME280;53957;47.222;18.670;2023-02-26T04:17:48;99203.56;;;2.07;100.00
67052;BME280;53957;47.222;18.670;2023-02-26T04:21:01;99222.53;;;2.09;100.00
67052;BME280;53957;47.222;18.670;2023-02-26T04:24:06;99222.56;;;2.14;100.00
67052;BME280;53957;47.222;18.670;2023-02-26T04:27:33;99229.38;;;2.10;100.00
67052;BME280;53957;47.222;18.670;2023-02-26T04:30:57;99248.00;;;1.76;100.00
67052;BME280;53957;47.222;18.670;2023-02-26T04:34:04;99245.16;;;2.10;100.00
67052;BME280;53957;47.222;18.670;2023-02-26T04:37:10;99248.03;;;2.08;100.00
67052;BME280;53957;47.222;18.670;2023-02-26T04:40:13;99242.06;;;2.18;100.00
67052;BME280;53957;47.222;18.670;2023-02-26T04:43:17;99246.22;;;2.09;100.00
67052;BME280;53957;47.222;18.670;2023-02-26T04:46:21;99230.09;;;2.00;100.00
67052;BME280;53957;47.222;18.670;2023-02-26T04:49:24;99237.91;;;1.95;100.00
67052;BME280;53957;47.222;18.670;2023-02-26T04:52:51;99252.94;;;2.00;100.00
67052;BME280;53957;47.222;18.670;2023-02-26T04:56:14;99253.00;;;2.05;100.00
67052;BME280;53957;47.222;18.670;2023-02-26T04:59:38;99229.09;;;2.06;100.00
67052;BME280;53957;47.222;18.670;2023-02-26T05:03:11;99241.84;;;1.92;100.00
67052;BME280;53957;47.222;18.670;2023-02-26T05:06:23;99237.63;;;2.19;100.00
67052;BME280;53957;47.222;18.670;2023-02-26T05:09:27;99238.09;;;1.83;100.00
67052;BME280;53957;47.222;18.670;2023-02-26T05:12:58;99244.06;;;2.06;100.00
67052;BME280;53957;47.222;18.670;2023-02-26T05:16:22;99239.75;;;1.95;100.00
67052;BME280;53957;47.222;18.670;2023-02-26T05:19:45;99251.56;;;1.65;100.00
67052;BME280;53957;47.222;18.670;2023-02-26T05:22:49;99263.31;;;1.79;100.00
67052;BME280;53957;47.222;18.670;2023-02-26T05:26:14;99258.09;;;1.84;100.00
67052;BME280;53957;47.222;18.670;2023-02-26T05:29:17;99260.66;;;1.79;100.00
67052;BME280;53957;47.222;18.670;2023-02-26T05:33:02;99254.53;;;2.01;100.00
67052;BME280;53957;47.222;18.670;2023-02-26T05:36:06;99256.72;;;2.09;100.00
67052;BME280;53957;47.222;18.670;2023-02-26T05:39:31;99258.94;;;1.95;100.00
67052;BME280;53957;47.222;18.670;2023-02-26T05:42:38;99279.50;;;1.98;100.00
67052;BME280;53957;47.222;18.670;2023-02-26T05:46:21;99291.81;;;1.92;100.00
67052;BME280;53957;47.222;18.670;2023-02-26T05:49:44;99288.25;;;2.04;100.00
67052;BME280;53957;47.222;18.670;2023-02-26T05:53:27;99286.97;;;2.06;100.00
67052;BME280;53957;47.222;18.670;2023-02-26T05:56:52;99286.09;;;1.73;100.00
67052;BME280;53957;47.222;18.670;2023-02-26T06:00:32;99282.97;;;1.54;100.00
67052;BME280;53957;47.222;18.670;2023-02-26T06:04:21;99291.63;;;1.72;100.00
67052;BME280;53957;47.222;18.670;2023-02-26T06:07:44;99292.13;;;1.74;100.00
67052;BME280;53957;47.222;18.670;2023-02-26T06:10:50;99286.41;;;1.77;100.00
67052;BME280;53957;47.222;18.670;2023-02-26T06:13:54;99303.56;;;1.85;100.00
67052;BME280;53957;47.222;18.670;2023-02-26T06:17:17;99302.13;;;1.72;100.00
67052;BME280;53957;47.222;18.670;2023-02-26T06:21:00;99302.56;;;1.64;100.00
67052;BME280;53957;47.222;18.670;2023-02-26T06:24:24;99305.91;;;1.59;100.00
67052;BME280;53957;47.222;18.670;2023-02-26T06:27:49;99307.75;;;1.58;100.00
67052;BME280;53957;47.222;18.670;2023-02-26T06:31:12;99307.87;;;1.69;100.00
67052;BME280;53957;47.222;18.670;2023-02-26T06:34:37;99320.16;;;1.85;100.00
67052;BME280;53957;47.222;18.670;2023-02-26T06:38:04;99326.97;;;1.86;100.00
67052;BME280;53957;47.222;18.670;2023-02-26T06:41:47;99328.03;;;1.85;100.00
67052;BME280;53957;47.222;18.670;2023-02-26T06:44:51;99329.81;;;1.80;100.00
67052;BME280;53957;47.222;18.670;2023-02-26T06:48:14;99321.69;;;2.08;100.00
67052;BME280;53957;47.222;18.670;2023-02-26T06:51:17;99322.59;;;2.19;100.00
67052;BME280;53957;47.222;18.670;2023-02-26T06:54:20;99316.59;;;1.97;100.00
67052;BME280;53957;47.222;18.670;2023-02-26T07:01:43;99340.59;;;2.05;100.00
67052;BME280;53957;47.222;18.670;2023-02-26T08:52:48;99372.44;;;3.39;100.00
67052;BME280;53957;47.222;18.670;2023-02-26T08:56:12;99378.84;;;3.48;99.96
67052;BME280;53957;47.222;18.670;2023-02-26T08:59:36;99371.25;;;3.57;98.58
67052;BME280;53957;47.222;18.670;2023-02-26T09:03:04;99382.78;;;3.46;98.64
67052;BME280;53957;47.222;18.670;2023-02-26T09:06:36;99383.72;;;3.82;98.17
67052;BME280;53957;47.222;18.670;2023-02-26T09:10:06;99392.78;;;4.02;97.70
67052;BME280;53957;47.222;18.670;2023-02-26T09:13:39;99381.66;;;3.95;95.89
67052;BME280;53957;47.222;18.670;2023-02-26T09:17:08;99401.81;;;4.22;94.77
67052;BME280;53957;47.222;18.670;2023-02-26T09:20:31;99392.22;;;3.95;93.58
67052;BME280;53957;47.222;18.670;2023-02-26T09:23:51;99406.97;;;3.85;96.33
67052;BME280;53957;47.222;18.670;2023-02-26T09:26:58;99404.31;;;3.85;93.48
67052;BME280;53957;47.222;18.670;2023-02-26T09:30:15;99407.53;;;3.98;95.03
67052;BME280;53957;47.222;18.670;2023-02-26T09:45:43;99401.91;;;4.73;91.88
67052;BME280;53957;47.222;18.670;2023-02-26T09:49:26;99407.16;;;4.94;88.76
67052;BME280;53957;47.222;18.670;2023-02-26T09:56:23;99414.56;;;5.12;87.96
67052;BME280;53957;47.222;18.670;2023-02-26T10:19:06;99447.56;;;6.37;78.42
67052;BME280;53957;47.222;18.670;2023-02-26T10:42:12;99479.59;;;7.20;71.57
67052;BME280;53957;47.222;18.670;2023-02-26T11:16:29;99495.78;;;6.84;72.01
67052;BME280;53957;47.222;18.670;2023-02-26T11:19:38;99499.09;;;6.60;69.46
67052;BME280;53957;47.222;18.670;2023-02-26T11:23:12;99515.84;;;6.51;72.11
67052;BME280;53957;47.222;18.670;2023-02-26T11:26:58;99518.50;;;6.45;71.27
67052;BME280;53957;47.222;18.670;2023-02-26T11:30:37;99519.22;;;6.61;73.73
67052;BME280;53957;47.222;18.670;2023-02-26T11:33:47;99512.31;;;6.66;72.35
67052;BME280;53957;47.222;18.670;2023-02-26T11:37:10;99511.31;;;6.51;72.42
67052;BME280;53957;47.222;18.670;2023-02-26T11:40:37;99515.81;;;6.56;71.39
67052;BME280;53957;47.222;18.670;2023-02-26T11:44:05;99517.97;;;6.93;72.88
67052;BME280;53957;47.222;18.670;2023-02-26T11:47:20;99520.56;;;7.04;71.53
67052;BME280;53957;47.222;18.670;2023-02-26T11:50:46;99529.59;;;7.03;71.26
67052;BME280;53957;47.222;18.670;2023-02-26T11:53:53;99530.97;;;6.95;70.34
67052;BME280;53957;47.222;18.670;2023-02-26T11:57:23;99530.72;;;6.91;69.70
67052;BME280;53957;47.222;18.670;2023-02-26T12:00:37;99532.94;;;6.74;68.21
67052;BME280;53957;47.222;18.670;2023-02-26T12:03:44;99528.91;;;6.87;70.77
67052;BME280;53957;47.222;18.670;2023-02-26T12:07:12;99529.34;;;6.99;68.30
67052;BME280;53957;47.222;18.670;2023-02-26T12:14:39;99539.91;;;6.54;66.75
67052;BME280;53957;47.222;18.670;2023-02-26T12:18:18;99532.03;;;6.89;68.32
67052;BME280;53957;47.222;18.670;2023-02-26T12:28:30;99536.22;;;6.50;65.10
67052;BME280;53957;47.222;18.670;2023-02-26T12:39:45;99550.44;;;6.70;65.70
67052;BME280;53957;47.222;18.670;2023-02-26T12:43:19;99548.97;;;6.98;65.62
67052;BME280;53957;47.222;18.670;2023-02-26T13:24:01;99590.13;;;5.89;70.30
67052;BME280;53957;47.222;18.670;2023-02-26T13:27:08;99593.31;;;5.80;69.49
67052;BME280;53957;47.222;18.670;2023-02-26T13:30:39;99600.75;;;5.63;73.04
67052;BME280;53957;47.222;18.670;2023-02-26T13:33:47;99605.50;;;5.61;74.03
67052;BME280;53957;47.222;18.670;2023-02-26T13:37:31;99603.09;;;5.54;73.79
67052;BME280;53957;47.222;18.670;2023-02-26T13:48:14;99612.63;;;5.35;75.61
67052;BME280;53957;47.222;18.670;2023-02-26T13:52:28;99610.72;;;5.20;79.67
67052;BME280;53957;47.222;18.670;2023-02-26T13:55:45;99618.91;;;5.13;81.01
67052;BME280;53957;47.222;18.670;2023-02-26T13:58:52;99624.47;;;5.22;81.41
67052;BME280;53957;47.222;18.670;2023-02-26T14:02:02;99625.50;;;5.00;84.24
67052;BME280;53957;47.222;18.670;2023-02-26T14:12:37;99635.25;;;4.94;88.04
67052;BME280;53957;47.222;18.670;2023-02-26T14:16:02;99644.53;;;5.07;86.39
67052;BME280;53957;47.222;18.670;2023-02-26T16:27:13;99831.88;;;2.61;100.00
67052;BME280;53957;47.222;18.670;2023-02-26T16:30:37;99837.94;;;2.62;100.00
67052;BME280;53957;47.222;18.670;2023-02-26T16:34:00;99846.47;;;2.69;100.00
67052;BME280;53957;47.222;18.670;2023-02-26T16:40:35;99851.59;;;2.58;100.00
67052;BME280;53957;47.222;18.670;2023-02-26T16:47:37;99856.25;;;2.39;100.00
67052;BME280;53957;47.222;18.670;2023-02-26T16:51:16;99855.09;;;2.47;100.00
67052;BME280;53957;47.222;18.670;2023-02-26T16:55:05;99862.16;;;2.47;100.00
67052;BME280;53957;47.222;18.670;2023-02-26T16:58:32;99864.97;;;2.40;100.00
67052;BME280;53957;47.222;18.670;2023-02-26T17:02:03;99867.75;;;2.50;100.00
67052;BME280;53957;47.222;18.670;2023-02-26T17:05:19;99873.44;;;2.59;100.00
67052;BME280;53957;47.222;18.670;2023-02-26T17:08:56;99880.44;;;2.36;100.00
67052;BME280;53957;47.222;18.670;2023-02-26T17:12:47;99888.00;;;2.33;100.00
67052;BME280;53957;47.222;18.670;2023-02-26T17:16:05;99887.94;;;2.45;100.00
67052;BME280;53957;47.222;18.670;2023-02-26T17:19:50;99890.00;;;2.42;100.00
67052;BME280;53957;47.222;18.670;2023-02-26T17:22:54;99898.94;;;2.41;100.00
67052;BME280;53957;47.222;18.670;2023-02-26T17:26:37;99893.44;;;2.43;100.00
67052;BME280;53957;47.222;18.670;2023-02-26T17:30:02;99898.97;;;2.30;100.00
67052;BME280;53957;47.222;18.670;2023-02-26T17:37:14;99901.94;;;2.33;100.00
67052;BME280;53957;47.222;18.670;2023-02-26T17:41:21;99904.16;;;2.24;100.00
67052;BME280;53957;47.222;18.670;2023-02-26T17:48:49;99908.47;;;2.02;100.00
67052;BME280;53957;47.222;18.670;2023-02-26T18:00:06;99903.09;;;2.37;100.00
67052;BME280;53957;47.222;18.670;2023-02-26T18:04:10;99901.94;;;2.04;100.00
67052;BME280;53957;47.222;18.670;2023-02-26T18:07:16;99902.09;;;1.98;100.00
67052;BME280;53957;47.222;18.670;2023-02-26T18:10:42;99906.75;;;2.07;100.00
67052;BME280;53957;47.222;18.670;2023-02-26T18:13:47;99908.56;;;2.07;100.00
67052;BME280;53957;47.222;18.670;2023-02-26T18:16:51;99905.47;;;2.10;100.00
67052;BME280;53957;47.222;18.670;2023-02-26T18:19:54;99908.47;;;2.02;100.00
67052;BME280;53957;47.222;18.670;2023-02-26T18:23:20;99904.31;;;2.18;100.00
67052;BME280;53957;47.222;18.670;2023-02-26T18:27:03;99906.12;;;2.17;100.00
67052;BME280;53957;47.222;18.670;2023-02-26T18:30:13;99896.88;;;2.15;100.00
67052;BME280;53957;47.222;18.670;2023-02-26T18:33:39;99893.47;;;2.02;100.00
67052;BME280;53957;47.222;18.670;2023-02-26T18:36:43;99898.62;;;1.97;100.00
67052;BME280;53957;47.222;18.670;2023-02-26T19:26:00;99939.41;;;2.23;100.00
67052;BME280;53957;47.222;18.670;2023-02-26T19:29:04;99949.53;;;1.91;100.00
67052;BME280;53957;47.222;18.670;2023-02-26T19:32:30;99951.19;;;1.56;100.00
67052;BME280;53957;47.222;18.670;2023-02-26T19:35:41;99945.09;;;1.80;100.00
67052;BME280;53957;47.222;18.670;2023-02-26T19:38:44;99958.84;;;1.82;100.00
67052;BME280;53957;47.222;18.670;2023-02-26T19:41:50;99959.28;;;1.90;100.00
67052;BME280;53957;47.222;18.670;2023-02-26T19:44:58;99961.00;;;1.85;100.00
67052;BME280;53957;47.222;18.670;2023-02-26T19:48:03;99968.09;;;1.84;100.00
67052;BME280;53957;47.222;18.670;2023-02-26T19:51:10;99976.75;;;1.85;100.00
67052;BME280;53957;47.222;18.670;2023-02-26T19:54:14;99980.31;;;1.79;100.00
67052;BME280;53957;47.222;18.670;2023-02-26T19:57:18;99985.91;;;1.82;100.00
67052;BME280;53957;47.222;18.670;2023-02-26T20:00:24;99993.00;;;1.93;100.00
67052;BME280;53957;47.222;18.670;2023-02-26T20:03:29;99995.19;;;1.97;100.00
67052;BME280;53957;47.222;18.670;2023-02-26T20:06:52;100004.09;;;1.96;100.00
67052;BME280;53957;47.222;18.670;2023-02-26T20:09:56;100012.88;;;2.13;100.00
67052;BME280;53957;47.222;18.670;2023-02-26T20:12:59;100011.16;;;1.95;100.00
67052;BME280;53957;47.222;18.670;2023-02-26T20:16:06;100028.91;;;1.88;100.00
67052;BME280;53957;47.222;18.670;2023-02-26T20:19:10;100027.56;;;1.85;100.00
67052;BME280;53957;47.222;18.670;2023-02-26T20:22:14;100033.59;;;1.86;100.00
67052;BME280;53957;47.222;18.670;2023-02-26T20:25:43;100034.84;;;1.71;100.00
67052;BME280;53957;47.222;18.670;2023-02-26T20:29:06;100041.47;;;1.74;100.00
67052;BME280;53957;47.222;18.670;2023-02-26T20:32:11;100038.19;;;1.67;100.00
67052;BME280;53957;47.222;18.670;2023-02-26T20:35:15;100049.72;;;1.66;100.00
67052;BME280;53957;47.222;18.670;2023-02-26T20:38:21;100057.47;;;1.60;100.00
67052;BME280;53957;47.222;18.670;2023-02-26T20:41:25;100063.06;;;1.64;100.00
67052;BME280;53957;47.222;18.670;2023-02-26T20:44:29;100056.59;;;1.67;100.00
67052;BME280;53957;47.222;18.670;2023-02-26T20:47:37;100059.34;;;1.72;100.00
67052;BME280;53957;47.222;18.670;2023-02-26T20:50:41;100072.47;;;1.72;100.00
67052;BME280;53957;47.222;18.670;2023-02-26T20:53:45;100063.87;;;1.65;100.00
67052;BME280;53957;47.222;18.670;2023-02-26T20:56:48;100079.19;;;1.68;100.00
67052;BME280;53957;47.222;18.670;2023-02-26T20:59:53;100081.06;;;1.79;100.00
67052;BME280;53957;47.222;18.670;2023-02-26T21:02:56;100082.78;;;1.85;100.00
67052;BME280;53957;47.222;18.670;2023-02-26T21:06:00;100083.44;;;1.69;100.00
67052;BME280;53957;47.222;18.670;2023-02-26T21:09:05;100080.09;;;1.61;100.00
67052;BME280;53957;47.222;18.670;2023-02-26T21:12:22;100081.72;;;1.63;100.00
67052;BME280;53957;47.222;18.670;2023-02-26T21:15:45;100085.28;;;1.80;100.00
67052;BME280;53957;47.222;18.670;2023-02-26T21:19:28;100083.81;;;1.84;100.00
67052;BME280;53957;47.222;18.670;2023-02-26T21:22:32;100078.75;;;1.71;100.00
67052;BME280;53957;47.222;18.670;2023-02-26T21:25:37;100085.63;;;1.72;100.00
67052;BME280;53957;47.222;18.670;2023-02-26T21:28:43;100080.81;;;1.69;100.00
67052;BME280;53957;47.222;18.670;2023-02-26T21:31:50;100090.97;;;1.53;100.00
67052;BME280;53957;47.222;18.670;2023-02-26T21:34:55;100097.00;;;1.54;100.00
67052;BME280;53957;47.222;18.670;2023-02-26T21:38:04;100101.31;;;1.48;100.00
67052;BME280;53957;47.222;18.670;2023-02-26T21:41:27;100091.81;;;1.35;100.00
67052;BME280;53957;47.222;18.670;2023-02-26T21:44:32;100101.31;;;1.36;100.00
67052;BME280;53957;47.222;18.670;2023-02-26T21:47:36;100105.84;;;1.29;100.00
67052;BME280;53957;47.222;18.670;2023-02-26T21:50:44;100097.38;;;1.27;100.00
67052;BME280;53957;47.222;18.670;2023-02-26T21:53:49;100100.12;;;1.20;100.00
67052;BME280;53957;47.222;18.670;2023-02-26T21:56:56;100095.34;;;0.99;100.00
67052;BME280;53957;47.222;18.670;2023-02-26T22:00:19;100101.34;;;0.87;100.00
67052;BME280;53957;47.222;18.670;2023-02-26T22:03:26;100105.31;;;0.78;100.00
67052;BME280;53957;47.222;18.670;2023-02-26T22:06:29;100110.47;;;0.85;100.00
67052;BME280;53957;47.222;18.670;2023-02-26T22:09:33;100115.50;;;0.68;100.00
67052;BME280;53957;47.222;18.670;2023-02-26T22:12:36;100114.19;;;0.58;100.00
67052;BME280;53957;47.222;18.670;2023-02-26T22:15:41;100116.75;;;0.46;100.00
67052;BME280;53957;47.222;18.670;2023-02-26T22:18:48;100123.59;;;0.47;100.00
67052;BME280;53957;47.222;18.670;2023-02-26T22:21:56;100124.66;;;0.21;100.00
67052;BME280;53957;47.222;18.670;2023-02-26T22:25:19;100119.72;;;0.31;100.00
67052;BME280;53957;47.222;18.670;2023-02-26T22:28:42;100123.19;;;0.25;100.00
67052;BME280;53957;47.222;18.670;2023-02-26T22:31:47;100120.44;;;0.39;100.00
67052;BME280;53957;47.222;18.670;2023-02-26T22:34:59;100128.44;;;0.25;100.00
67052;BME280;53957;47.222;18.670;2023-02-26T22:38:02;100128.87;;;0.22;100.00
67052;BME280;53957;47.222;18.670;2023-02-26T22:41:06;100135.03;;;0.35;100.00
67052;BME280;53957;47.222;18.670;2023-02-26T22:44:10;100134.28;;;0.27;100.00
67052;BME280;53957;47.222;18.670;2023-02-26T22:47:18;100133.53;;;0.20;100.00
67052;BME280;53957;47.222;18.670;2023-02-26T22:50:23;100139.72;;;0.26;100.00
67052;BME280;53957;47.222;18.670;2023-02-26T22:53:45;100137.88;;;0.08;100.00
67052;BME280;53957;47.222;18.670;2023-02-26T22:56:49;100129.38;;;-0.13;100.00
67052;BME280;53957;47.222;18.670;2023-02-26T22:59:52;100138.63;;;-0.10;100.00
67052;BME280;53957;47.222;18.670;2023-02-26T23:02:55;100133.28;;;-0.22;100.00
67052;BME280;53957;47.222;18.670;2023-02-26T23:05:59;100140.31;;;-0.16;100.00
67052;BME280;53957;47.222;18.670;2023-02-26T23:09:03;100148.25;;;-0.29;100.00
67052;BME280;53957;47.222;18.670;2023-02-26T23:12:08;100163.22;;;-0.37;100.00
67052;BME280;53957;47.222;18.670;2023-02-26T23:15:12;100165.06;;;-0.44;100.00
67052;BME280;53957;47.222;18.670;2023-02-26T23:18:16;100166.50;;;-0.48;100.00
67052;BME280;53957;47.222;18.670;2023-02-26T23:21:18;100175.38;;;-0.49;100.00
67052;BME280;53957;47.222;18.670;2023-02-26T23:24:22;100182.84;;;-0.53;100.00
67052;BME280;53957;47.222;18.670;2023-02-26T23:27:25;100180.63;;;-0.49;100.00
67052;BME280;53957;47.222;18.670;2023-02-26T23:30:29;100186.41;;;-0.40;100.00
67052;BME280;53957;47.222;18.670;2023-02-26T23:33:32;100197.13;;;-0.42;100.00
67052;BME280;53957;47.222;18.670;2023-02-26T23:36:36;100197.75;;;-0.53;100.00
67052;BME280;53957;47.222;18.670;2023-02-26T23:39:39;100200.56;;;-0.48;100.00
67052;BME280;53957;47.222;18.670;2023-02-26T23:42:42;100204.19;;;-0.49;100.00
67052;BME280;53957;47.222;18.670;2023-02-26T23:45:45;100211.50;;;-0.58;100.00
67052;BME280;53957;47.222;18.670;2023-02-26T23:48:48;100218.97;;;-0.61;100.00
67052;BME280;53957;47.222;18.670;2023-02-26T23:51:51;100218.38;;;-0.63;100.00
67052;BME280;53957;47.222;18.670;2023-02-26T23:54:55;100220.47;;;-0.79;100.00
67052;BME280;53957;47.222;18.670;2023-02-26T23:57:58;100232.34;;;-0.83;100.00
